Aviation Digital Data Service (ADDS)

Output produced by METARs form (0256 UTC 18 June 2019)
found at http://www.aviationweather.gov/metar/data/
 
Forecast for: AGGC (CHOISEUL BAY , SB)
Text: TAF AGGC 172310Z 1800/1824 11015KT 9999 -SHRA SCT016 BKN100 INTER 1800/1806 3000 TSRA SCT016 FEW017CB OVC028 Q 1010 1008 1007 1009
Forecast period: 0000 UTC 18 June 2019 to 0000 UTC 19 June 2019
Forecast type: FROM: standard forecast or significant change
Winds: from the ESE (110 degrees) at 17 MPH (15 knots; 7.7 m/s)
Visibility: 6 or more miles 10+ km)
Ceiling: 10000 feet AGL
Clouds: scattered clouds at 1600 feet AGL
broken clouds at 10000 feet AGL
Weather: -SHRA  (light rain showers)
Text:
Forecast period: 0000 to 0600 UTC 18 June 2019
Forecast type: TEMPORARY: The following changes expected for less than half the time period
Visibility: 1.86 miles (2.99 km)
Ceiling: 2800 feet AGL
Clouds: scattered clouds at 1600 feet AGL
few clouds at 1700 feet AGL
overcast cloud deck at 2800 feet AGL
Weather: TSRA  (rain associated with thunderstorm(s))